createdAt,value
2018-09-23T00:02:07.920Z,14.00
2018-09-23T00:04:35.071Z,14.10
2018-09-23T00:07:02.239Z,14.20
2018-09-23T00:09:29.382Z,14.10
2018-09-23T00:11:56.541Z,14.00
2018-09-23T00:14:23.715Z,14.10
2018-09-23T00:16:50.891Z,14.10
2018-09-23T00:19:18.059Z,14.20
2018-09-23T00:21:45.249Z,14.20
2018-09-23T00:24:12.403Z,14.30
2018-09-23T00:26:39.603Z,14.30
2018-09-23T00:29:06.859Z,14.40
2018-09-23T00:31:40.723Z,14.40
2018-09-23T00:34:07.964Z,14.50
2018-09-23T00:36:35.116Z,14.50
2018-09-23T00:39:02.378Z,14.40
2018-09-23T00:41:29.535Z,14.40
2018-09-23T00:43:56.738Z,14.40
2018-09-23T00:46:23.903Z,14.40
2018-09-23T00:48:51.055Z,14.40
2018-09-23T00:51:18.229Z,14.30
2018-09-23T00:53:45.389Z,14.20
2018-09-23T00:56:12.563Z,14.10
2018-09-23T00:58:39.722Z,14.10
2018-09-23T01:01:06.934Z,14.10
2018-09-23T01:03:34.085Z,14.10
2018-09-23T01:06:01.267Z,14.10
2018-09-23T01:08:28.484Z,14.10
2018-09-23T01:10:55.635Z,14.00
2018-09-23T01:13:22.908Z,13.90
2018-09-23T01:15:50.077Z,14.00
2018-09-23T01:18:17.366Z,14.00
2018-09-23T01:20:45.343Z,14.00
2018-09-23T01:23:12.500Z,14.00
2018-09-23T01:25:39.670Z,14.00
2018-09-23T01:28:06.832Z,14.00
2018-09-23T01:30:33.992Z,14.00
2018-09-23T01:33:01.163Z,13.90
2018-09-23T01:35:28.315Z,13.90
2018-09-23T01:37:55.563Z,13.90
2018-09-23T01:40:22.724Z,13.90
2018-09-23T01:42:49.891Z,13.80
2018-09-23T01:45:17.047Z,13.80
2018-09-23T01:47:44.207Z,13.90
2018-09-23T01:50:11.362Z,13.80
2018-09-23T01:52:38.527Z,13.80
2018-09-23T01:55:05.703Z,13.80
2018-09-23T01:57:32.858Z,13.80
2018-09-23T02:00:00.013Z,13.80
2018-09-23T02:02:27.182Z,13.80
2018-09-23T02:04:54.319Z,13.80
2018-09-23T02:07:21.471Z,13.80
2018-09-23T02:09:48.627Z,13.80
2018-09-23T02:12:16.021Z,13.80
2018-09-23T02:14:43.216Z,13.80
2018-09-23T02:17:10.384Z,13.70
2018-09-23T02:19:37.731Z,13.80
2018-09-23T02:22:04.907Z,13.80
2018-09-23T02:24:32.085Z,13.80
2018-09-23T02:26:59.269Z,13.70
2018-09-23T02:29:26.443Z,13.70
2018-09-23T02:31:53.602Z,13.70
2018-09-23T02:34:20.755Z,13.60
2018-09-23T02:36:47.907Z,13.50
2018-09-23T02:39:21.809Z,13.40
2018-09-23T02:41:48.972Z,13.50
2018-09-23T02:44:16.134Z,13.50
2018-09-23T02:46:50.275Z,13.50
2018-09-23T02:49:17.439Z,13.40
2018-09-23T02:51:44.578Z,13.40
2018-09-23T02:54:11.743Z,13.40
2018-09-23T02:56:38.887Z,13.40
2018-09-23T02:59:06.177Z,13.40
2018-09-23T03:01:33.328Z,13.40
2018-09-23T03:04:00.487Z,13.40
2018-09-23T03:06:27.639Z,13.40
2018-09-23T03:08:54.801Z,13.40
2018-09-23T03:11:21.941Z,13.40
2018-09-23T03:13:49.101Z,13.40
2018-09-23T03:16:16.279Z,13.40
2018-09-23T03:18:43.680Z,13.40
2018-09-23T03:21:10.854Z,13.40
2018-09-23T03:23:44.919Z,13.40
2018-09-23T03:26:12.095Z,13.30
2018-09-23T03:28:39.255Z,13.20
2018-09-23T03:31:06.767Z,13.20
2018-09-23T03:33:33.920Z,13.10
2018-09-23T03:36:01.133Z,13.10
2018-09-23T03:38:28.302Z,13.10
2018-09-23T03:40:55.454Z,13.10
2018-09-23T03:43:22.606Z,13.10
2018-09-23T03:45:49.854Z,13.10
2018-09-23T03:48:17.029Z,13.10
2018-09-23T03:50:44.235Z,13.20
2018-09-23T03:53:11.387Z,13.20
2018-09-23T03:55:38.538Z,13.20
2018-09-23T03:58:05.700Z,13.10
2018-09-23T04:00:32.859Z,13.10
2018-09-23T04:03:00.031Z,13.20
2018-09-23T04:05:27.200Z,13.10
2018-09-23T04:07:54.368Z,13.10
2018-09-23T04:10:21.545Z,13.20
2018-09-23T04:12:49.203Z,13.20
2018-09-23T04:15:16.377Z,13.20
2018-09-23T04:17:43.543Z,13.30
2018-09-23T04:20:10.721Z,13.20
2018-09-23T04:22:43.879Z,13.20
2018-09-23T04:25:11.049Z,13.10
2018-09-23T04:27:38.212Z,13.20
2018-09-23T04:30:12.211Z,13.20
2018-09-23T04:32:39.499Z,13.20
2018-09-23T04:35:06.728Z,13.30
2018-09-23T04:37:34.081Z,13.30
2018-09-23T04:40:01.347Z,13.30
2018-09-23T04:42:28.503Z,13.30
2018-09-23T04:44:55.897Z,13.30
2018-09-23T04:47:22.996Z,13.30
2018-09-23T04:49:50.164Z,13.20
2018-09-23T04:52:17.317Z,13.20
2018-09-23T04:54:44.480Z,13.20
2018-09-23T04:57:11.632Z,13.30
2018-09-23T04:59:38.806Z,13.40
2018-09-23T05:02:05.967Z,13.30
2018-09-23T05:04:33.114Z,13.30
2018-09-23T05:07:00.729Z,13.30
2018-09-23T05:09:27.895Z,13.30
2018-09-23T05:11:55.144Z,13.30
2018-09-23T05:14:22.298Z,13.30
2018-09-23T05:16:49.507Z,13.30
2018-09-23T05:19:16.698Z,13.30
2018-09-23T05:21:43.926Z,13.30
2018-09-23T05:24:11.124Z,13.40
2018-09-23T05:26:38.275Z,13.40
2018-09-23T05:29:05.456Z,13.40
2018-09-23T05:31:32.633Z,13.50
2018-09-23T05:34:06.643Z,13.50
2018-09-23T05:36:33.805Z,13.50
2018-09-23T05:39:01.800Z,13.50
2018-09-23T05:41:28.950Z,13.50
2018-09-23T05:43:56.137Z,13.50
2018-09-23T05:46:23.284Z,13.60
2018-09-23T05:48:50.435Z,13.70
2018-09-23T05:51:17.595Z,13.70
2018-09-23T05:53:44.748Z,13.70
2018-09-23T05:56:12.017Z,13.80
2018-09-23T05:58:39.357Z,13.80
2018-09-23T06:01:06.699Z,13.80
2018-09-23T06:06:07.735Z,13.80
2018-09-23T06:08:34.895Z,13.80
2018-09-23T06:11:02.116Z,13.80
2018-09-23T06:13:29.223Z,13.90
2018-09-23T06:15:56.396Z,14.00
2018-09-23T06:18:23.599Z,14.00
2018-09-23T06:20:50.743Z,14.10
2018-09-23T06:23:17.903Z,14.10
2018-09-23T06:25:45.062Z,14.20
2018-09-23T06:28:12.227Z,14.20
2018-09-23T06:30:39.411Z,14.20
2018-09-23T06:33:06.562Z,14.30
2018-09-23T06:35:33.724Z,14.30
2018-09-23T06:38:00.946Z,14.30
2018-09-23T06:40:28.103Z,14.30
2018-09-23T06:42:55.264Z,14.40
2018-09-23T06:45:22.428Z,14.40
2018-09-23T06:47:49.570Z,14.30
2018-09-23T06:50:16.807Z,14.50
2018-09-23T06:52:43.955Z,14.50
2018-09-23T06:55:11.119Z,14.70
2018-09-23T06:57:38.260Z,14.80
2018-09-23T07:00:05.447Z,14.80
2018-09-23T07:02:32.590Z,14.80
2018-09-23T07:04:59.800Z,14.90
2018-09-23T07:07:26.924Z,14.90
2018-09-23T07:09:54.071Z,14.90
2018-09-23T07:12:22.267Z,15.00
2018-09-23T07:14:49.460Z,15.00
2018-09-23T07:17:16.680Z,15.10
2018-09-23T07:19:43.836Z,15.20
2018-09-23T07:22:11.015Z,15.30
2018-09-23T07:24:38.221Z,15.50
2018-09-23T07:27:05.537Z,15.60
2018-09-23T07:32:06.609Z,15.80
2018-09-23T07:34:33.802Z,15.90
2018-09-23T07:37:01.693Z,16.00
2018-09-23T07:39:28.876Z,16.10
2018-09-23T07:41:55.974Z,16.30
2018-09-23T07:44:23.126Z,16.40
2018-09-23T07:46:50.323Z,16.40
2018-09-23T07:49:17.558Z,16.40
2018-09-23T07:51:44.722Z,16.40
2018-09-23T07:54:11.907Z,16.40
2018-09-23T07:56:39.091Z,16.40
2018-09-23T07:59:06.252Z,16.50
2018-09-23T08:01:33.436Z,16.60
2018-09-23T08:04:01.239Z,16.70
2018-09-23T08:06:28.521Z,16.80
2018-09-23T08:08:55.749Z,16.90
2018-09-23T08:11:22.906Z,16.90
2018-09-23T08:13:57.118Z,17.00
2018-09-23T08:16:24.163Z,17.00
2018-09-23T08:18:51.421Z,17.00
2018-09-23T08:21:18.723Z,17.10
2018-09-23T08:23:45.803Z,17.10
2018-09-23T08:26:12.975Z,17.20
2018-09-23T08:28:40.175Z,17.30
2018-09-23T08:31:07.380Z,17.20
2018-09-23T08:33:34.538Z,17.30
2018-09-23T08:36:01.731Z,17.40
2018-09-23T08:38:28.903Z,17.50
2018-09-23T08:40:56.129Z,17.50
2018-09-23T08:43:23.290Z,17.60
2018-09-23T08:45:50.471Z,17.60
2018-09-23T08:50:51.654Z,17.80
2018-09-23T08:53:18.871Z,17.90
2018-09-23T08:55:46.028Z,18.10
2018-09-23T08:58:13.282Z,18.20
2018-09-23T09:00:40.529Z,18.30
2018-09-23T09:03:07.875Z,18.40
2018-09-23T09:05:35.052Z,18.50
2018-09-23T09:08:02.269Z,18.60
2018-09-23T09:10:29.419Z,18.70
2018-09-23T09:12:56.590Z,18.80
2018-09-23T09:15:23.856Z,18.80
2018-09-23T09:20:24.991Z,18.90
2018-09-23T09:22:52.168Z,19.00
2018-09-23T09:25:19.352Z,19.10
2018-09-23T09:27:46.520Z,19.20
2018-09-23T09:30:13.690Z,19.10
2018-09-23T09:32:41.019Z,19.20
2018-09-23T09:35:08.200Z,19.30
2018-09-23T09:37:35.375Z,19.40
2018-09-23T09:40:02.570Z,19.50
2018-09-23T09:42:29.814Z,19.50
2018-09-23T09:44:56.980Z,19.60
2018-09-23T09:47:24.190Z,19.60
2018-09-23T09:49:51.433Z,19.60
2018-09-23T09:52:18.593Z,19.50
2018-09-23T09:54:45.824Z,19.50
2018-09-23T09:57:12.990Z,19.50
2018-09-23T09:59:41.426Z,19.70
2018-09-23T10:02:08.711Z,19.70
2018-09-23T10:04:35.959Z,19.80
2018-09-23T10:07:03.177Z,19.80
2018-09-23T10:09:30.355Z,19.80
2018-09-23T10:11:57.507Z,19.80
2018-09-23T10:14:24.680Z,19.90
2018-09-23T10:16:51.935Z,19.90
2018-09-23T10:19:19.201Z,19.90
2018-09-23T10:21:46.417Z,20.00
2018-09-23T10:24:13.675Z,20.10
2018-09-23T10:26:41.045Z,20.10
2018-09-23T10:29:08.320Z,20.10
2018-09-23T10:31:35.492Z,20.10
2018-09-23T10:34:02.705Z,20.10
2018-09-23T10:36:36.807Z,20.10
2018-09-23T10:39:06.605Z,20.10
2018-09-23T10:41:33.872Z,20.20
2018-09-23T10:44:01.030Z,20.10
2018-09-23T10:46:28.263Z,20.10
2018-09-23T10:48:56.283Z,20.20
2018-09-23T10:51:24.045Z,20.30
2018-09-23T10:53:51.262Z,20.40
2018-09-23T10:56:18.471Z,20.40
2018-09-23T10:58:45.684Z,20.50
2018-09-23T11:01:13.009Z,20.50
2018-09-23T11:03:40.191Z,20.60
2018-09-23T11:06:07.531Z,20.60
2018-09-23T11:08:35.618Z,20.70
2018-09-23T11:11:02.872Z,20.70
2018-09-23T11:13:30.152Z,20.70
2018-09-23T11:15:57.475Z,20.70
2018-09-23T11:18:25.008Z,20.80
2018-09-23T11:20:52.443Z,20.90
2018-09-23T11:23:20.119Z,21.10
2018-09-23T11:25:47.428Z,21.10
2018-09-23T11:28:14.932Z,21.10
2018-09-23T11:30:42.524Z,21.00
2018-09-23T11:33:09.787Z,21.10
2018-09-23T11:35:37.058Z,21.20
2018-09-23T11:38:04.723Z,21.20
2018-09-23T11:40:31.944Z,21.30
2018-09-23T11:42:59.210Z,21.30
2018-09-23T11:45:26.341Z,21.50
2018-09-23T11:47:55.227Z,21.70
2018-09-23T11:50:22.415Z,21.90
2018-09-23T11:52:49.692Z,21.90
2018-09-23T11:55:16.915Z,22.00
2018-09-23T11:57:44.103Z,21.90
2018-09-23T12:00:11.385Z,21.80
2018-09-23T12:02:38.687Z,21.80
2018-09-23T12:05:05.958Z,21.80
2018-09-23T12:07:33.131Z,21.80
2018-09-23T12:10:01.800Z,21.70
2018-09-23T12:12:29.058Z,21.70
2018-09-23T12:14:56.258Z,21.70
2018-09-23T12:17:23.808Z,21.80
2018-09-23T12:19:51.716Z,21.90
2018-09-23T12:22:18.882Z,22.10
2018-09-23T12:24:46.047Z,22.20
2018-09-23T12:27:13.208Z,22.30
2018-09-23T12:29:40.439Z,22.20
2018-09-23T12:32:07.595Z,22.10
2018-09-23T12:34:34.766Z,22.10
2018-09-23T12:37:01.947Z,22.30
2018-09-23T12:39:31.422Z,22.30
2018-09-23T12:41:59.371Z,22.30
2018-09-23T12:44:26.560Z,22.20
2018-09-23T12:46:53.784Z,22.20
2018-09-23T12:49:20.964Z,22.20
2018-09-23T12:51:48.107Z,22.20
2018-09-23T12:54:15.282Z,22.10
2018-09-23T12:56:42.431Z,22.20
2018-09-23T12:59:09.600Z,22.20
2018-09-23T13:01:36.787Z,22.30
2018-09-23T13:04:03.954Z,22.30
2018-09-23T13:06:31.115Z,22.30
2018-09-23T13:08:58.270Z,22.40
2018-09-23T13:11:25.449Z,22.50
2018-09-23T13:13:52.613Z,22.50
2018-09-23T13:16:19.783Z,22.50
2018-09-23T13:18:47.050Z,22.60
2018-09-23T13:21:14.131Z,22.50
2018-09-23T13:23:41.303Z,22.40
2018-09-23T13:26:08.496Z,22.40
2018-09-23T13:28:35.648Z,22.30
2018-09-23T13:31:02.835Z,22.50
2018-09-23T13:33:30.127Z,22.40
2018-09-23T13:35:57.293Z,22.50
2018-09-23T13:38:24.447Z,22.40
2018-09-23T13:40:51.620Z,22.30
2018-09-23T13:43:18.775Z,22.30
2018-09-23T13:45:45.951Z,22.30
2018-09-23T13:48:13.115Z,22.30
2018-09-23T13:50:40.631Z,22.30
2018-09-23T13:53:07.994Z,22.30
2018-09-23T13:55:35.224Z,22.30
2018-09-23T13:58:02.393Z,22.30
2018-09-23T14:00:29.559Z,22.30
2018-09-23T14:02:56.720Z,22.40
2018-09-23T14:05:24.020Z,22.30
2018-09-23T14:07:51.217Z,22.40
2018-09-23T14:10:18.411Z,22.50
2018-09-23T14:12:45.572Z,22.40
2018-09-23T14:15:12.754Z,22.40
2018-09-23T14:17:39.916Z,22.30
2018-09-23T14:20:07.169Z,22.40
2018-09-23T14:22:34.345Z,22.40
2018-09-23T14:25:01.520Z,22.40
2018-09-23T14:27:29.070Z,22.60
2018-09-23T14:29:56.383Z,22.80
2018-09-23T14:32:23.608Z,22.90
2018-09-23T14:34:50.787Z,22.80
2018-09-23T14:37:17.960Z,22.80
2018-09-23T14:39:45.143Z,22.60
2018-09-23T14:42:12.338Z,22.50
2018-09-23T14:44:39.465Z,22.40
2018-09-23T14:47:06.663Z,22.30
2018-09-23T14:49:34.037Z,22.20
2018-09-23T14:52:01.191Z,22.00
2018-09-23T14:54:28.547Z,21.80
2018-09-23T14:56:55.637Z,21.60
2018-09-23T14:59:22.998Z,20.90
2018-09-23T15:01:50.217Z,19.80
2018-09-23T15:04:18.545Z,19.00
2018-09-23T15:06:45.700Z,18.50
2018-09-23T15:09:13.038Z,18.00
2018-09-23T15:11:40.227Z,17.80
2018-09-23T15:14:07.502Z,17.70
2018-09-23T15:16:34.650Z,17.60
2018-09-23T15:19:01.814Z,17.50
2018-09-23T15:24:02.973Z,17.40
2018-09-23T15:26:30.145Z,17.30
2018-09-23T15:28:57.286Z,17.20
2018-09-23T15:31:24.504Z,17.10
2018-09-23T15:33:51.667Z,17.20
2018-09-23T15:36:18.876Z,17.10
2018-09-23T15:38:46.035Z,17.00
2018-09-23T15:41:13.205Z,16.90
2018-09-23T15:43:40.359Z,16.80
2018-09-23T15:46:07.564Z,16.70
2018-09-23T15:48:34.717Z,16.50
2018-09-23T15:51:01.875Z,16.40
2018-09-23T15:53:29.026Z,16.40
2018-09-23T15:55:56.215Z,16.20
2018-09-23T15:58:23.371Z,16.20
2018-09-23T16:00:50.796Z,16.10
2018-09-23T16:03:17.964Z,16.10
2018-09-23T16:05:45.354Z,16.00
2018-09-23T16:08:12.583Z,16.00
2018-09-23T16:10:39.780Z,15.80
2018-09-23T16:13:06.934Z,15.70
2018-09-23T16:15:34.201Z,15.70
2018-09-23T16:18:01.373Z,15.60
2018-09-23T16:20:28.593Z,15.50
2018-09-23T16:22:55.802Z,15.50
2018-09-23T16:25:22.992Z,15.40
2018-09-23T16:27:56.931Z,15.30
2018-09-23T16:30:24.096Z,15.20
2018-09-23T16:32:51.375Z,15.20
2018-09-23T16:35:18.778Z,15.20
2018-09-23T16:37:45.958Z,15.10
2018-09-23T16:40:13.248Z,15.00
2018-09-23T16:42:40.675Z,15.00
2018-09-23T16:45:07.860Z,14.90
2018-09-23T16:47:35.253Z,14.90
2018-09-23T16:50:02.435Z,14.80
2018-09-23T16:52:29.607Z,14.80
2018-09-23T16:54:56.806Z,14.90
2018-09-23T16:57:23.919Z,14.80
2018-09-23T16:59:51.067Z,14.70
2018-09-23T17:02:18.251Z,14.80
2018-09-23T17:04:45.395Z,14.70
2018-09-23T17:07:12.602Z,14.80
2018-09-23T17:09:39.722Z,14.70
2018-09-23T17:12:06.891Z,14.70
2018-09-23T17:14:34.060Z,14.70
2018-09-23T17:17:01.233Z,14.50
2018-09-23T17:19:28.433Z,14.40
2018-09-23T17:21:55.612Z,14.40
2018-09-23T17:24:22.759Z,14.50
2018-09-23T17:26:49.928Z,14.40
2018-09-23T17:29:17.101Z,14.40
2018-09-23T17:31:44.275Z,14.30
2018-09-23T17:34:11.447Z,14.20
2018-09-23T17:36:38.602Z,14.20
2018-09-23T17:39:08.308Z,14.20
2018-09-23T17:41:35.504Z,14.20
2018-09-23T17:44:02.679Z,14.10
2018-09-23T17:46:30.095Z,14.10
2018-09-23T17:48:58.842Z,14.00
2018-09-23T17:51:26.029Z,14.00
2018-09-23T17:53:53.267Z,14.00
2018-09-23T17:56:20.411Z,14.00
2018-09-23T17:58:47.667Z,13.90
2018-09-23T18:01:14.935Z,13.90
2018-09-23T18:03:42.201Z,13.80
2018-09-23T18:06:09.363Z,13.60
2018-09-23T18:08:36.564Z,13.50
2018-09-23T18:11:03.747Z,13.60
2018-09-23T18:13:30.911Z,13.50
2018-09-23T18:15:59.478Z,13.50
2018-09-23T18:21:00.639Z,13.40
2018-09-23T18:23:27.816Z,13.50
2018-09-23T18:25:55.000Z,13.50
2018-09-23T18:28:22.155Z,13.50
2018-09-23T18:30:49.356Z,13.40
2018-09-23T18:33:16.534Z,13.30
2018-09-23T18:35:43.683Z,13.20
2018-09-23T18:38:10.919Z,13.30
2018-09-23T18:40:38.071Z,13.30
2018-09-23T18:43:05.292Z,13.30
2018-09-23T18:45:32.443Z,13.30
2018-09-23T18:47:59.612Z,13.40
2018-09-23T18:50:26.784Z,13.40
2018-09-23T18:52:59.615Z,13.40
2018-09-23T18:55:32.519Z,13.40
2018-09-23T18:58:00.254Z,13.40
2018-09-23T19:00:27.580Z,13.40
2018-09-23T19:02:54.751Z,13.30
2018-09-23T19:05:21.941Z,13.30
2018-09-23T19:07:49.115Z,13.30
2018-09-23T19:10:16.320Z,13.20
2018-09-23T19:12:48.301Z,13.10
2018-09-23T19:15:15.525Z,13.10
2018-09-23T19:17:42.655Z,13.00
2018-09-23T19:20:09.895Z,13.00
2018-09-23T19:22:42.858Z,12.90
2018-09-23T19:25:10.007Z,12.80
2018-09-23T19:27:37.159Z,12.70
2018-09-23T19:30:04.908Z,12.70
2018-09-23T19:32:32.171Z,12.70
2018-09-23T19:34:59.837Z,12.70
2018-09-23T19:37:27.269Z,12.70
2018-09-23T19:39:55.174Z,12.80
2018-09-23T19:42:22.515Z,12.70
2018-09-23T19:44:56.911Z,12.80
2018-09-23T19:47:26.138Z,12.80
2018-09-23T19:49:54.908Z,12.90
2018-09-23T19:52:22.091Z,12.80
2018-09-23T19:54:50.667Z,12.80
2018-09-23T19:57:18.279Z,12.80
2018-09-23T19:59:46.312Z,12.90
2018-09-23T20:02:13.770Z,12.90
2018-09-23T20:04:41.672Z,13.00
2018-09-23T20:07:09.540Z,12.90
2018-09-23T20:09:37.125Z,12.90
2018-09-23T20:12:04.295Z,13.00
2018-09-23T20:14:32.768Z,12.90
2018-09-23T20:17:01.773Z,12.80
2018-09-23T20:19:29.549Z,12.90
2018-09-23T20:21:56.822Z,12.90
2018-09-23T20:24:25.600Z,12.90
2018-09-23T20:26:52.770Z,12.90
2018-09-23T20:29:21.420Z,12.90
2018-09-23T20:31:48.641Z,12.80
2018-09-23T20:34:15.852Z,12.70
2018-09-23T20:36:42.970Z,12.70
2018-09-23T20:39:10.483Z,12.60
2018-09-23T20:41:37.651Z,12.50
2018-09-23T20:44:05.262Z,12.40
2018-09-23T20:46:33.648Z,12.40
2018-09-23T20:49:01.360Z,12.30
2018-09-23T20:51:28.555Z,12.20
2018-09-23T20:53:55.866Z,12.20
2018-09-23T20:56:23.018Z,12.10
2018-09-23T20:58:50.192Z,12.00
2018-09-23T21:01:18.764Z,11.90
2018-09-23T21:03:45.916Z,11.90
2018-09-23T21:06:13.090Z,11.80
2018-09-23T21:08:40.243Z,11.80
2018-09-23T21:11:07.399Z,11.70
2018-09-23T21:13:34.543Z,11.50
2018-09-23T21:16:01.712Z,11.50
2018-09-23T21:18:28.855Z,11.60
2018-09-23T21:20:56.019Z,11.60
2018-09-23T21:23:23.183Z,11.60
2018-09-23T21:25:50.350Z,11.40
2018-09-23T21:28:17.511Z,11.40
2018-09-23T21:30:44.706Z,11.40
2018-09-23T21:33:11.882Z,11.50
2018-09-23T21:35:39.068Z,11.50
2018-09-23T21:38:06.235Z,11.40
2018-09-23T21:40:33.405Z,11.40
2018-09-23T21:43:00.568Z,11.30
2018-09-23T21:45:27.719Z,11.40
2018-09-23T21:47:54.901Z,11.60
2018-09-23T21:50:22.055Z,11.50
2018-09-23T21:52:49.476Z,11.40
2018-09-23T21:55:16.667Z,11.40
2018-09-23T22:00:17.655Z,11.40
2018-09-23T22:02:44.807Z,11.50
2018-09-23T22:05:11.998Z,11.50
2018-09-23T22:07:39.155Z,11.50
2018-09-23T22:10:06.366Z,11.40
2018-09-23T22:12:33.552Z,11.50
2018-09-23T22:15:00.912Z,11.40
2018-09-23T22:17:29.392Z,11.40
2018-09-23T22:19:56.620Z,11.50
2018-09-23T22:22:23.788Z,11.40
2018-09-23T22:24:50.923Z,11.40
2018-09-23T22:27:18.116Z,11.40
2018-09-23T22:29:45.264Z,11.30
2018-09-23T22:34:46.524Z,11.50
2018-09-23T22:37:13.699Z,11.40
2018-09-23T22:39:40.871Z,11.50
2018-09-23T22:42:08.096Z,11.50
2018-09-23T22:44:35.195Z,11.50
2018-09-23T22:47:02.379Z,11.50
2018-09-23T22:49:29.531Z,11.40
2018-09-23T22:51:56.701Z,11.40
2018-09-23T22:54:23.876Z,11.40
2018-09-23T22:56:51.033Z,11.50
2018-09-23T22:59:18.203Z,11.60
2018-09-23T23:01:45.511Z,11.60
2018-09-23T23:04:12.663Z,11.60
2018-09-23T23:06:40.968Z,11.50
2018-09-23T23:09:08.664Z,11.50
2018-09-23T23:11:35.870Z,11.60
2018-09-23T23:14:03.036Z,11.50
2018-09-23T23:16:30.324Z,11.50
2018-09-23T23:18:57.487Z,11.60
2018-09-23T23:21:24.668Z,11.60
2018-09-23T23:23:51.876Z,11.60
2018-09-23T23:26:19.054Z,11.50
2018-09-23T23:28:46.212Z,11.60
2018-09-23T23:31:13.374Z,11.60
2018-09-23T23:33:40.547Z,11.60
2018-09-23T23:36:07.720Z,11.60
2018-09-23T23:38:34.899Z,11.60
2018-09-23T23:41:02.099Z,11.60
2018-09-23T23:43:29.282Z,11.60
2018-09-23T23:45:57.325Z,11.60
2018-09-23T23:48:24.508Z,11.60
2018-09-23T23:50:51.676Z,11.60
2018-09-23T23:53:18.836Z,11.60
2018-09-23T23:55:45.991Z,11.60
2018-09-23T23:58:13.160Z,11.70
